Time;durP1;ratioP1;P1;durP2;ratioP2;P2;SDS_P1;SDS_P2;PMS_P1;PMS_P2;Temp;Humidity;BMP_temperature;BMP_pressure;BME280_temperature;BME280_humidity;BME280_pressure;Samples;Min_cycle;Max_cycle;Signal;HPM_P1;HPM_P2
2022/11/27 00:01:56;;;;;;;16.77;8.65;;;6.30;99.90;;;;;;5012727;28;20041;-30
2022/11/27 00:04:21;;;;;;;18.63;8.60;;;6.30;99.90;;;;;;5010702;28;20042;-29
2022/11/27 00:06:47;;;;;;;20.52;8.18;;;6.30;99.90;;;;;;4994013;28;20491;-31
2022/11/27 00:09:15;;;;;;;16.23;8.93;;;6.30;99.90;;;;;;5010333;28;20108;-30
2022/11/27 00:11:41;;;;;;;14.27;8.27;;;6.20;99.90;;;;;;4996653;28;20046;-30
2022/11/27 00:14:11;;;;;;;22.45;9.55;;;6.20;99.90;;;;;;5002987;28;20462;-31
2022/11/27 00:16:37;;;;;;;14.65;7.95;;;6.20;99.90;;;;;;5007564;28;20042;-30
2022/11/27 00:19:02;;;;;;;14.57;7.85;;;6.20;99.90;;;;;;5010232;28;20053;-30
2022/11/27 00:21:31;;;;;;;17.35;8.48;;;6.20;99.90;;;;;;5003758;28;20384;-29
2022/11/27 00:23:59;;;;;;;16.23;7.75;;;6.20;99.90;;;;;;5010616;28;20066;-30
2022/11/27 00:26:26;;;;;;;14.93;7.82;;;6.10;99.90;;;;;;5010346;28;20034;-29
2022/11/27 00:28:52;;;;;;;17.42;8.65;;;6.10;99.90;;;;;;5011524;28;20072;-30
2022/11/27 00:31:25;;;;;;;18.70;7.88;;;6.10;99.90;;;;;;5023040;28;20045;-30
2022/11/27 00:33:55;;;;;;;;;;;6.10;99.90;;;;;;5022032;28;20100;-30
2022/11/27 00:36:21;;;;;;;14.80;7.32;;;6.10;99.90;;;;;;5019619;28;19948;-29
2022/11/27 00:38:47;;;;;;;19.60;8.55;;;6.00;99.90;;;;;;4994035;28;20423;-30
2022/11/27 00:41:19;;;;;;;14.50;7.15;;;6.00;99.90;;;;;;4996307;28;20049;-30
2022/11/27 00:43:45;;;;;;;17.40;8.10;;;6.00;99.90;;;;;;5009734;28;20071;-31
2022/11/27 00:46:16;;;;;;;15.75;7.15;;;5.90;99.90;;;;;;5020681;28;20044;-30
2022/11/27 00:48:43;;;;;;;20.83;7.57;;;5.90;99.90;;;;;;5014131;28;20080;-31
2022/11/27 00:51:14;;;;;;;17.42;8.45;;;5.90;99.90;;;;;;5013699;28;20041;-30
2022/11/27 00:53:40;;;;;;;14.23;7.32;;;5.90;99.90;;;;;;5013894;28;20072;-31
2022/11/27 00:56:07;;;;;;;12.07;7.40;;;5.90;99.90;;;;;;5013652;28;20045;-31
2022/11/27 00:58:33;;;;;;;16.55;7.88;;;5.80;99.90;;;;;;5017681;28;20037;-30
2022/11/27 01:01:02;;;;;;;14.85;7.53;;;5.80;99.90;;;;;;4997510;28;20084;-29
2022/11/27 01:03:29;;;;;;;15.13;7.85;;;5.80;99.90;;;;;;5028394;28;20045;-31
2022/11/27 01:05:55;;;;;;;15.32;7.93;;;5.80;99.90;;;;;;5013470;28;20099;-33
2022/11/27 01:08:21;;;;;;;19.52;7.78;;;5.80;99.90;;;;;;5018636;28;20056;-30
2022/11/27 01:10:55;;;;;;;18.02;8.57;;;5.70;99.90;;;;;;5022744;28;20038;-30
2022/11/27 01:13:26;;;;;;;20.13;8.68;;;5.70;99.90;;;;;;5013407;28;20046;-32
2022/11/27 01:16:12;;;;;;;16.52;7.80;;;5.60;99.90;;;;;;5018087;28;20096;-31
2022/11/27 01:18:40;;;;;;;15.25;8.85;;;5.60;99.90;;;;;;5013697;28;20042;-31
2022/11/27 01:21:07;;;;;;;21.55;8.43;;;5.60;99.90;;;;;;5013314;28;20045;-31
2022/11/27 01:23:33;;;;;;;16.40;7.50;;;5.60;99.90;;;;;;5010578;28;20045;-30
2022/11/27 01:26:04;;;;;;;13.32;8.57;;;5.60;99.90;;;;;;5013204;28;20065;-29
2022/11/27 01:28:31;;;;;;;15.85;8.43;;;5.60;99.90;;;;;;5026864;28;20212;-30
2022/11/27 01:30:57;;;;;;;19.52;8.82;;;5.60;99.90;;;;;;5026462;28;20116;-30
2022/11/27 01:33:23;;;;;;;17.15;7.70;;;5.60;99.90;;;;;;4996578;28;20117;-30
2022/11/27 01:35:56;;;;;;;15.75;8.82;;;5.60;99.90;;;;;;5001285;28;20582;-30
2022/11/27 01:38:22;;;;;;;14.15;8.02;;;5.60;99.90;;;;;;5030718;28;20041;-30
2022/11/27 01:40:48;;;;;;;14.88;7.90;;;5.60;99.90;;;;;;5005204;28;20041;-33
2022/11/27 01:43:14;;;;;;;17.98;8.15;;;5.50;99.90;;;;;;5010170;28;20049;-31
2022/11/27 01:45:41;;;;;;;15.32;8.27;;;5.50;99.90;;;;;;5011320;28;20033;-30
2022/11/27 01:48:12;;;;;;;18.50;7.80;;;5.50;99.90;;;;;;5032927;28;20045;-32
2022/11/27 01:50:39;;;;;;;19.35;7.82;;;5.40;99.90;;;;;;5022441;28;20041;-31
2022/11/27 01:53:17;;;;;;;14.55;8.00;;;5.40;99.90;;;;;;5017722;28;20042;-30
2022/11/27 01:55:51;;;;;;;16.42;8.20;;;5.40;99.90;;;;;;5020739;28;20034;-29
2022/11/27 01:58:27;;;;;;;12.02;7.63;;;5.40;99.90;;;;;;4999331;28;20368;-29
2022/11/27 02:00:53;;;;;;;16.02;8.73;;;5.40;99.90;;;;;;5012587;28;20030;-29
2022/11/27 02:03:19;;;;;;;19.92;9.13;;;5.30;99.90;;;;;;5012350;28;20054;-29
2022/11/27 02:05:45;;;;;;;12.95;8.20;;;5.30;99.90;;;;;;5012229;28;20048;-29
2022/11/27 02:08:14;;;;;;;16.08;8.52;;;5.30;99.90;;;;;;5012590;28;20030;-29
2022/11/27 02:11:04;;;;;;;19.83;8.93;;;5.30;99.90;;;;;;5012311;28;20073;-29
2022/11/27 02:13:39;;;;;;;20.17;7.90;;;5.30;99.90;;;;;;5004074;28;20108;-29
2022/11/27 02:16:20;;;;;;;16.42;8.20;;;5.30;99.90;;;;;;5012167;28;20079;-29
2022/11/27 02:19:35;;;;;;;15.48;8.00;;;5.30;99.90;;;;;;5013473;28;20052;-28
2022/11/27 02:22:13;;;;;;;15.35;8.60;;;5.30;99.90;;;;;;5009639;28;20052;-29
2022/11/27 02:25:06;;;;;;;13.13;7.85;;;5.30;99.90;;;;;;5012430;28;20045;-30
2022/11/27 02:27:40;;;;;;;17.30;8.43;;;5.20;99.90;;;;;;5018727;28;20116;-28
2022/11/27 02:30:07;;;;;;;16.80;7.88;;;5.30;99.90;;;;;;5006080;28;20088;-29
2022/11/27 02:32:52;;;;;;;14.52;7.57;;;5.20;99.90;;;;;;5020948;28;20100;-31
2022/11/27 02:35:18;;;;;;;16.42;8.02;;;5.20;99.90;;;;;;5014175;28;20037;-29
2022/11/27 02:37:46;;;;;;;16.67;8.05;;;5.20;99.90;;;;;;5012076;28;20038;-30
2022/11/27 02:40:16;;;;;;;15.07;8.02;;;5.20;99.90;;;;;;5012052;28;20522;-30
2022/11/27 02:43:15;;;;;;;16.23;7.72;;;5.20;99.90;;;;;;5020262;28;20050;-30
2022/11/27 02:45:48;;;;;;;14.57;7.43;;;5.20;99.90;;;;;;5009488;28;20430;-31
2022/11/27 02:48:18;;;;;;;15.88;7.88;;;5.20;99.90;;;;;;5028628;28;20044;-29
2022/11/27 02:50:47;;;;;;;11.77;7.40;;;5.10;99.90;;;;;;5023452;28;20426;-30
2022/11/27 02:53:19;;;;;;;12.57;7.43;;;5.20;99.90;;;;;;5023620;28;20380;-31
2022/11/27 02:55:49;;;;;;;13.20;6.80;;;5.20;99.90;;;;;;5012015;28;20108;-31
2022/11/27 02:58:18;;;;;;;14.15;8.07;;;5.20;99.90;;;;;;5011547;28;20050;-30
2022/11/27 03:00:46;;;;;;;17.33;7.25;;;5.10;99.90;;;;;;5011796;28;20049;-31
2022/11/27 03:03:16;;;;;;;16.15;7.22;;;5.10;99.90;;;;;;5011767;28;20038;-29
2022/11/27 03:05:45;;;;;;;15.43;7.03;;;5.20;99.90;;;;;;4994929;28;20487;-29
2022/11/27 03:08:29;;;;;;;14.77;7.30;;;5.20;99.90;;;;;;4994791;28;20172;-29
2022/11/27 03:11:04;;;;;;;16.70;6.38;;;5.20;99.90;;;;;;5012285;28;20531;-30
2022/11/27 03:13:31;;;;;;;17.38;6.82;;;5.20;99.90;;;;;;5011720;28;20034;-29
2022/11/27 03:16:06;;;;;;;14.02;7.22;;;5.20;99.90;;;;;;5023768;28;20038;-31
2022/11/27 03:19:02;;;;;;;13.38;6.80;;;5.20;99.90;;;;;;5011111;28;20042;-29
2022/11/27 03:21:36;;;;;;;13.23;7.07;;;5.30;99.90;;;;;;5024584;28;20034;-30
2022/11/27 03:24:02;;;;;;;14.95;6.88;;;5.30;99.90;;;;;;5013159;28;20038;-31
2022/11/27 03:26:28;;;;;;;13.18;6.50;;;5.30;99.90;;;;;;5011298;28;20451;-29
2022/11/27 03:28:55;;;;;;;11.30;6.13;;;5.30;99.90;;;;;;5010978;28;20042;-30
2022/11/27 03:31:22;;;;;;;12.98;6.65;;;5.30;99.90;;;;;;5011349;28;20037;-31
2022/11/27 03:33:49;;;;;;;11.02;6.28;;;5.30;99.90;;;;;;5021527;28;20108;-29
2022/11/27 03:36:17;;;;;;;17.83;6.63;;;5.30;99.90;;;;;;5011787;28;20117;-30
2022/11/27 03:38:45;;;;;;;15.23;6.13;;;5.30;99.90;;;;;;5010934;28;20050;-30
2022/11/27 03:41:37;;;;;;;18.85;6.97;;;5.30;99.90;;;;;;5010588;28;20129;-29
2022/11/27 03:44:11;;;;;;;12.55;5.82;;;5.30;99.90;;;;;;5009780;28;20091;-30
2022/11/27 03:46:52;;;;;;;13.63;6.10;;;5.30;99.90;;;;;;5010646;28;20030;-29
2022/11/27 03:49:18;;;;;;;12.52;5.82;;;5.30;99.90;;;;;;5006819;28;20065;-29
2022/11/27 03:51:57;;;;;;;10.73;6.57;;;5.30;99.90;;;;;;5018006;28;20076;-30
2022/11/27 03:54:28;;;;;;;11.50;6.70;;;5.40;99.90;;;;;;5011154;28;20042;-31
2022/11/27 03:57:06;;;;;;;10.73;5.57;;;5.40;99.90;;;;;;5010704;28;20037;-29
2022/11/27 03:59:37;;;;;;;13.10;5.85;;;5.40;99.90;;;;;;4988016;28;20046;-29
2022/11/27 04:02:03;;;;;;;15.93;6.90;;;5.40;99.90;;;;;;5010694;28;20049;-29
2022/11/27 04:04:29;;;;;;;8.70;5.03;;;5.40;99.90;;;;;;4989182;28;20034;-29
2022/11/27 04:06:55;;;;;;;12.73;5.50;;;5.40;99.90;;;;;;5007348;28;20042;-31
2022/11/27 04:09:20;;;;;;;13.15;5.75;;;5.40;99.90;;;;;;5010622;28;20392;-30
2022/11/27 04:11:46;;;;;;;12.32;5.93;;;5.40;99.90;;;;;;5011015;28;20383;-31
2022/11/27 04:14:12;;;;;;;9.90;5.22;;;5.40;99.90;;;;;;5016349;28;20044;-30
2022/11/27 04:16:37;;;;;;;12.82;5.55;;;5.50;99.90;;;;;;5027283;28;20034;-29
2022/11/27 04:19:03;;;;;;;11.40;5.07;;;5.50;99.90;;;;;;5013805;28;20483;-30
2022/11/27 04:21:29;;;;;;;8.55;5.18;;;5.50;99.90;;;;;;5014856;28;20049;-29
2022/11/27 04:23:54;;;;;;;10.45;5.55;;;5.50;99.90;;;;;;5014636;28;20046;-30
2022/11/27 04:26:20;;;;;;;11.40;5.63;;;5.50;99.90;;;;;;5000804;28;20034;-30
2022/11/27 04:28:46;;;;;;;14.95;5.25;;;5.50;99.90;;;;;;5014657;28;20092;-29
2022/11/27 04:31:12;;;;;;;16.98;5.53;;;5.50;99.90;;;;;;5016294;28;20041;-30
2022/11/27 04:33:37;;;;;;;11.48;5.22;;;5.50;99.90;;;;;;5000908;28;20160;-30
2022/11/27 04:36:03;;;;;;;9.15;5.75;;;5.50;99.90;;;;;;5028152;28;20487;-30
2022/11/27 04:38:29;;;;;;;13.40;5.07;;;5.50;99.90;;;;;;5016342;28;20038;-29
2022/11/27 04:40:56;;;;;;;10.80;5.10;;;5.50;99.90;;;;;;5014160;28;20460;-30
2022/11/27 04:43:22;;;;;;;11.07;5.10;;;5.50;99.90;;;;;;5014285;28;20446;-30
2022/11/27 04:45:48;;;;;;;9.20;4.70;;;5.50;99.90;;;;;;5015588;28;20038;-30
2022/11/27 04:48:14;;;;;;;12.45;5.50;;;5.50;99.90;;;;;;5014048;28;20042;-31
2022/11/27 04:50:39;;;;;;;10.20;5.28;;;5.50;99.90;;;;;;5013779;28;20038;-29
2022/11/27 04:53:05;;;;;;;10.63;4.90;;;5.50;99.90;;;;;;5014001;28;20124;-30
2022/11/27 04:55:31;;;;;;;11.55;4.80;;;5.50;99.90;;;;;;5013845;28;20115;-31
2022/11/27 04:57:57;;;;;;;12.25;5.30;;;5.50;99.90;;;;;;5013781;28;20044;-29
2022/11/27 05:00:22;;;;;;;11.75;4.95;;;5.50;99.90;;;;;;5018727;28;20132;-30
2022/11/27 05:02:48;;;;;;;12.30;5.20;;;5.50;99.90;;;;;;5019760;28;20041;-31
2022/11/27 05:05:16;;;;;;;11.95;4.95;;;5.50;99.90;;;;;;5013939;28;20037;-30
2022/11/27 05:07:41;;;;;;;10.25;5.15;;;5.50;99.90;;;;;;5020241;28;20052;-30
2022/11/27 05:10:08;;;;;;;7.32;4.75;;;5.40;99.90;;;;;;5013555;28;20041;-31
2022/11/27 05:12:33;;;;;;;9.98;4.88;;;5.40;99.90;;;;;;5013375;28;20138;-30
2022/11/27 05:14:59;;;;;;;13.90;6.00;;;5.40;99.90;;;;;;5013521;28;20117;-30
2022/11/27 05:17:25;;;;;;;11.63;5.20;;;5.40;99.90;;;;;;5027322;28;20042;-29
2022/11/27 05:19:50;;;;;;;9.02;4.88;;;5.40;99.90;;;;;;5013578;28;20038;-31
2022/11/27 05:22:16;;;;;;;12.30;4.82;;;5.40;99.90;;;;;;5025714;28;20037;-30
2022/11/27 05:24:42;;;;;;;8.68;5.03;;;5.40;99.90;;;;;;5014586;28;20122;-30
2022/11/27 05:27:08;;;;;;;10.95;4.70;;;5.40;99.90;;;;;;5024181;28;20037;-30
2022/11/27 05:29:33;;;;;;;12.50;4.68;;;5.40;99.90;;;;;;4998814;28;20508;-30
2022/11/27 05:31:59;;;;;;;14.15;5.13;;;5.40;99.90;;;;;;5015248;28;20041;-30
2022/11/27 05:34:25;;;;;;;11.48;4.65;;;5.40;99.90;;;;;;5022361;28;20088;-30
2022/11/27 05:36:50;;;;;;;9.43;4.88;;;5.40;99.90;;;;;;5012805;28;20049;-30
2022/11/27 05:39:16;;;;;;;10.90;5.53;;;5.40;99.90;;;;;;5013278;28;20045;-30
2022/11/27 05:41:42;;;;;;;13.05;4.82;;;5.40;99.90;;;;;;5012730;28;20045;-30
2022/11/27 05:44:13;;;;;;;10.05;5.15;;;5.40;99.90;;;;;;5026032;28;20048;-30
2022/11/27 05:46:39;;;;;;;11.95;5.10;;;5.40;99.90;;;;;;5012978;28;20041;-29
2022/11/27 05:49:05;;;;;;;14.55;5.43;;;5.40;99.90;;;;;;5021461;28;20488;-30
2022/11/27 05:51:31;;;;;;;13.20;5.82;;;5.40;99.90;;;;;;5017159;28;20049;-30
2022/11/27 05:53:57;;;;;;;10.13;5.25;;;5.40;99.90;;;;;;5014225;28;20403;-29
2022/11/27 05:56:22;;;;;;;6.82;4.40;;;5.40;99.90;;;;;;5012925;28;20136;-31
2022/11/27 05:58:50;;;;;;;8.55;4.78;;;5.40;99.90;;;;;;5012812;28;20514;-29
2022/11/27 06:01:17;;;;;;;10.45;4.80;;;5.40;99.90;;;;;;5023476;28;20069;-29
2022/11/27 06:03:46;;;;;;;10.63;4.95;;;5.40;99.90;;;;;;5006203;28;20046;-30
2022/11/27 06:06:14;;;;;;;8.00;4.95;;;5.40;99.90;;;;;;5003980;28;20555;-30
2022/11/27 06:08:40;;;;;;;11.07;4.85;;;5.40;99.90;;;;;;5003397;28;20387;-30
2022/11/27 06:11:11;;;;;;;11.27;4.90;;;5.40;99.90;;;;;;5010419;28;20046;-30
2022/11/27 06:13:37;;;;;;;14.57;5.40;;;5.40;99.90;;;;;;5014835;28;20077;-30
2022/11/27 06:16:13;;;;;;;11.02;4.57;;;5.30;99.90;;;;;;5002929;28;20089;-31
2022/11/27 06:18:39;;;;;;;6.40;4.60;;;5.40;99.90;;;;;;5016008;28;20077;-31
2022/11/27 06:21:10;;;;;;;8.88;5.10;;;5.40;99.90;;;;;;5015908;28;20317;-30
2022/11/27 06:23:36;;;;;;;9.38;5.20;;;5.40;99.90;;;;;;5002988;28;20041;-30
2022/11/27 06:26:22;;;;;;;8.35;5.18;;;5.40;99.90;;;;;;5016981;28;20044;-30
2022/11/27 06:28:48;;;;;;;7.78;4.72;;;5.40;99.90;;;;;;5012719;28;20038;-30
2022/11/27 06:31:20;;;;;;;11.63;5.03;;;5.40;99.90;;;;;;5013445;28;20044;-32
2022/11/27 06:33:47;;;;;;;10.63;5.30;;;5.40;99.90;;;;;;5019010;28;20042;-31
2022/11/27 06:36:13;;;;;;;10.50;5.25;;;5.40;99.90;;;;;;5013118;28;20033;-30
2022/11/27 06:38:38;;;;;;;12.00;5.47;;;5.40;99.90;;;;;;5007791;28;20042;-30
2022/11/27 06:41:06;;;;;;;9.63;5.18;;;5.40;99.90;;;;;;5012890;28;20570;-30
2022/11/27 06:43:34;;;;;;;10.68;5.07;;;5.40;99.90;;;;;;5004932;28;20081;-30
2022/11/27 06:46:01;;;;;;;8.30;5.22;;;5.40;99.90;;;;;;5013616;28;20033;-32
2022/11/27 06:48:27;;;;;;;7.55;4.88;;;5.40;99.90;;;;;;5013576;28;20121;-31
2022/11/27 06:50:52;;;;;;;9.88;5.43;;;5.40;99.90;;;;;;5010814;28;20133;-30
2022/11/27 06:53:18;;;;;;;11.10;5.82;;;5.40;99.90;;;;;;5019990;28;20041;-31
2022/11/27 06:55:44;;;;;;;12.52;4.90;;;5.40;99.90;;;;;;4991082;28;20040;-31
2022/11/27 06:58:10;;;;;;;12.45;6.70;;;5.40;99.90;;;;;;5007545;28;20460;-31
2022/11/27 07:00:36;;;;;;;16.73;6.30;;;5.40;99.90;;;;;;5015632;28;20046;-31
2022/11/27 07:03:02;;;;;;;11.90;6.53;;;5.40;99.90;;;;;;5009392;28;20045;-30
2022/11/27 07:05:28;;;;;;;10.75;5.75;;;5.40;99.90;;;;;;5006038;28;20062;-30
2022/11/27 07:07:55;;;;;;;11.70;6.72;;;5.40;99.90;;;;;;5003796;28;20551;-31
2022/11/27 07:10:21;;;;;;;9.32;6.03;;;5.40;99.90;;;;;;5015063;28;20444;-30
2022/11/27 07:12:47;;;;;;;10.80;7.03;;;5.40;99.90;;;;;;5019740;28;20446;-31
2022/11/27 07:15:12;;;;;;;13.13;6.75;;;5.40;99.90;;;;;;5008530;28;20048;-30
2022/11/27 07:17:38;;;;;;;13.60;6.78;;;5.50;99.90;;;;;;5007082;28;20038;-30
2022/11/27 07:20:05;;;;;;;10.25;5.53;;;5.50;99.90;;;;;;5003146;28;20099;-29
2022/11/27 07:22:33;;;;;;;8.35;5.80;;;5.50;99.90;;;;;;4996354;28;20049;-30
2022/11/27 07:24:59;;;;;;;11.13;6.20;;;5.50;99.90;;;;;;5010450;28;20045;-31
2022/11/27 07:27:25;;;;;;;10.10;5.80;;;5.50;99.90;;;;;;5011370;28;20642;-30
2022/11/27 07:29:51;;;;;;;13.25;8.15;;;5.50;99.90;;;;;;5010721;28;20119;-30
2022/11/27 07:32:17;;;;;;;13.63;8.38;;;5.50;99.90;;;;;;5011217;28;20093;-31
2022/11/27 07:34:42;;;;;;;15.43;8.65;;;5.50;99.90;;;;;;5004003;28;20452;-31
2022/11/27 07:37:08;;;;;;;14.45;8.68;;;5.60;99.90;;;;;;5022233;28;20034;-30
2022/11/27 07:39:34;;;;;;;16.33;10.77;;;5.60;99.90;;;;;;4995530;28;20192;-30
2022/11/27 07:41:59;;;;;;;15.90;13.15;;;5.60;99.90;;;;;;5004742;28;20104;-30
2022/11/27 07:44:25;;;;;;;30.00;17.92;;;5.60;99.90;;;;;;4986293;28;20045;-31
2022/11/27 07:46:51;;;;;;;33.58;20.13;;;5.60;99.90;;;;;;5010718;28;20041;-30
2022/11/27 07:49:17;;;;;;;32.22;18.23;;;5.60;99.90;;;;;;5010628;28;20038;-30
2022/11/27 07:51:42;;;;;;;30.15;15.98;;;5.60;99.90;;;;;;5029170;28;20574;-29
2022/11/27 07:54:09;;;;;;;21.40;11.68;;;5.70;99.90;;;;;;5010399;28;20041;-32
2022/11/27 07:56:34;;;;;;;24.70;11.70;;;5.60;99.90;;;;;;5010549;28;20569;-30
2022/11/27 07:59:00;;;;;;;28.58;14.35;;;5.70;99.90;;;;;;5017539;28;20050;-30
2022/11/27 08:01:26;;;;;;;18.50;9.82;;;5.70;99.90;;;;;;5011039;28;20046;-30
2022/11/27 08:03:52;;;;;;;19.52;9.20;;;5.70;99.90;;;;;;5009021;28;20450;-30
2022/11/27 08:06:19;;;;;;;19.42;9.55;;;5.70;99.90;;;;;;5006004;28;20030;-31
2022/11/27 08:08:46;;;;;;;17.33;9.15;;;5.80;99.90;;;;;;5005159;28;20100;-30
2022/11/27 08:11:34;;;;;;;19.85;9.55;;;5.80;99.90;;;;;;5017457;28;20056;-30
2022/11/27 08:14:05;;;;;;;20.42;11.88;;;5.80;99.90;;;;;;5005862;28;20033;-30
2022/11/27 08:16:32;;;;;;;15.40;8.95;;;5.80;99.90;;;;;;5010551;28;20116;-31
2022/11/27 08:18:58;;;;;;;18.63;10.80;;;5.90;99.90;;;;;;5009692;28;20049;-29
2022/11/27 08:21:24;;;;;;;14.63;7.80;;;5.90;99.90;;;;;;5014034;28;20399;-31
2022/11/27 08:23:50;;;;;;;21.08;10.30;;;5.90;99.90;;;;;;5014456;28;20438;-30
2022/11/27 08:26:16;;;;;;;16.80;9.38;;;5.90;99.90;;;;;;5011925;28;20030;-30
2022/11/27 08:28:42;;;;;;;13.93;7.15;;;5.90;99.90;;;;;;5010975;28;20045;-29
2022/11/27 08:31:10;;;;;;;13.75;8.05;;;6.00;99.90;;;;;;5013555;28;20042;-30
2022/11/27 08:33:36;;;;;;;15.40;8.80;;;6.00;99.90;;;;;;5008797;28;20249;-30
2022/11/27 08:36:03;;;;;;;14.10;8.52;;;6.00;99.90;;;;;;5012010;28;20121;-30
2022/11/27 08:38:28;;;;;;;13.05;9.05;;;6.00;99.90;;;;;;5016424;28;20095;-30
2022/11/27 08:41:02;;;;;;;14.82;7.25;;;6.00;99.90;;;;;;5010102;28;20037;-29
2022/11/27 08:43:28;;;;;;;13.77;7.53;;;6.00;99.90;;;;;;5004623;28;20044;-30
2022/11/27 08:45:55;;;;;;;14.50;9.50;;;6.10;99.90;;;;;;5014533;28;20045;-31
2022/11/27 08:48:21;;;;;;;15.07;8.07;;;6.00;99.90;;;;;;5019889;28;20038;-30
2022/11/27 08:50:48;;;;;;;12.82;7.78;;;6.10;99.90;;;;;;5006391;28;20407;-31
2022/11/27 08:53:15;;;;;;;11.75;6.80;;;6.10;99.90;;;;;;5012094;28;20072;-31
2022/11/27 08:55:41;;;;;;;11.15;6.35;;;6.20;99.90;;;;;;5010442;28;20121;-31
2022/11/27 08:58:06;;;;;;;10.05;6.63;;;6.20;99.90;;;;;;5010418;28;20528;-30
2022/11/27 09:00:33;;;;;;;14.77;8.80;;;6.10;99.90;;;;;;5019575;28;20431;-30
2022/11/27 09:03:00;;;;;;;12.65;7.45;;;6.20;99.90;;;;;;5019832;28;20041;-30
2022/11/27 09:05:26;;;;;;;15.82;7.07;;;6.20;99.90;;;;;;5005195;28;20048;-30
2022/11/27 09:07:52;;;;;;;13.93;7.93;;;6.20;99.90;;;;;;5018411;28;20033;-32
2022/11/27 09:10:18;;;;;;;16.40;9.73;;;6.20;99.90;;;;;;5013366;28;20084;-30
2022/11/27 09:12:44;;;;;;;15.48;9.13;;;6.30;99.90;;;;;;5014003;28;20036;-30
2022/11/27 09:15:11;;;;;;;14.27;9.38;;;6.20;99.90;;;;;;5013711;28;20046;-31
2022/11/27 09:17:37;;;;;;;21.33;11.25;;;6.20;99.90;;;;;;5013872;28;20042;-30
2022/11/27 09:20:04;;;;;;;16.35;9.30;;;6.30;99.90;;;;;;5024895;28;20042;-31
2022/11/27 09:22:30;;;;;;;13.35;9.35;;;6.30;99.90;;;;;;5014657;28;20041;-32
2022/11/27 09:24:55;;;;;;;17.92;9.93;;;6.20;99.90;;;;;;5016031;28;20515;-30
2022/11/27 09:27:21;;;;;;;17.67;12.27;;;6.30;99.90;;;;;;5017706;28;20068;-31
2022/11/27 09:29:48;;;;;;;16.38;9.85;;;6.30;99.90;;;;;;5013149;28;20033;-31
2022/11/27 09:32:14;;;;;;;19.95;10.77;;;6.30;99.90;;;;;;5017297;28;20033;-31
2022/11/27 09:34:40;;;;;;;21.88;11.57;;;6.30;99.90;;;;;;5013424;28;20044;-31
2022/11/27 09:37:06;;;;;;;23.05;13.52;;;6.30;99.90;;;;;;5012932;28;20459;-31
2022/11/27 09:39:32;;;;;;;28.63;19.25;;;6.30;99.90;;;;;;5013027;28;20080;-31
2022/11/27 09:42:04;;;;;;;30.42;21.63;;;6.30;99.90;;;;;;5013236;28;20506;-31
2022/11/27 09:44:39;;;;;;;16.27;9.25;;;6.30;99.90;;;;;;5012862;28;20045;-30
2022/11/27 09:47:27;;;;;;;22.35;14.07;;;6.30;99.90;;;;;;5012915;28;20041;-31
2022/11/27 09:50:12;;;;;;;22.35;14.00;;;6.20;99.90;;;;;;5016334;28;20402;-32
2022/11/27 09:52:53;;;;;;;14.40;10.88;;;6.20;99.90;;;;;;5019538;28;20065;-31
2022/11/27 09:55:31;;;;;;;17.77;9.93;;;6.20;99.90;;;;;;5013148;28;20033;-30
2022/11/27 09:58:15;;;;;;;18.88;11.50;;;6.20;99.90;;;;;;5006813;28;20108;-30
2022/11/27 10:00:44;;;;;;;18.98;12.10;;;6.20;99.90;;;;;;5012880;28;20034;-30
2022/11/27 10:03:30;;;;;;;17.80;10.98;;;6.20;99.90;;;;;;5012660;28;20387;-30
2022/11/27 10:06:10;;;;;;;16.55;12.27;;;6.20;99.90;;;;;;5005195;28;20129;-30
2022/11/27 10:08:42;;;;;;;15.15;9.55;;;6.10;99.90;;;;;;5012477;28;20046;-30
2022/11/27 10:11:21;;;;;;;21.35;12.35;;;6.10;99.90;;;;;;4996392;28;20483;-31
2022/11/27 10:14:07;;;;;;;20.45;11.50;;;6.10;99.90;;;;;;5027828;28;20144;-32
2022/11/27 10:16:41;;;;;;;22.55;11.85;;;6.10;99.90;;;;;;5011994;28;20119;-29
2022/11/27 10:19:16;;;;;;;18.02;9.63;;;6.10;99.90;;;;;;5015323;28;20037;-31
2022/11/27 10:21:55;;;;;;;23.05;14.90;;;6.10;99.90;;;;;;5012660;28;20045;-31
2022/11/27 10:24:35;;;;;;;20.75;13.10;;;6.10;99.90;;;;;;5009037;28;20105;-30
2022/11/27 10:27:08;;;;;;;19.13;11.35;;;6.20;99.90;;;;;;4993014;28;20041;-31
2022/11/27 10:29:45;;;;;;;17.90;10.23;;;6.10;99.90;;;;;;4994584;28;20113;-32
2022/11/27 10:32:14;;;;;;;17.23;9.07;;;6.20;99.90;;;;;;5008973;28;20388;-30
2022/11/27 10:34:52;;;;;;;16.42;8.10;;;6.20;99.90;;;;;;5013661;28;20084;-30
2022/11/27 10:37:32;;;;;;;23.25;15.43;;;6.20;99.90;;;;;;5011646;28;20030;-30
2022/11/27 10:40:05;;;;;;;16.35;10.68;;;6.20;99.90;;;;;;5014168;28;20038;-30
2022/11/27 10:42:49;;;;;;;13.90;7.93;;;6.20;99.90;;;;;;5017377;28;20073;-31
2022/11/27 10:45:24;;;;;;;15.48;9.50;;;6.20;99.90;;;;;;5016760;28;20519;-31
2022/11/27 10:47:50;;;;;;;17.23;9.68;;;6.20;99.90;;;;;;5000833;28;20049;-31
2022/11/27 10:50:18;;;;;;;13.48;9.00;;;6.30;99.90;;;;;;5009622;28;20418;-30
2022/11/27 10:53:03;;;;;;;15.88;10.95;;;6.30;99.90;;;;;;5011439;28;20033;-31
2022/11/27 10:55:31;;;;;;;11.05;7.60;;;6.30;99.90;;;;;;5011834;28;20410;-31
2022/11/27 10:58:22;;;;;;;15.93;8.77;;;6.30;99.90;;;;;;5011837;28;20037;-30
2022/11/27 11:01:06;;;;;;;15.40;10.32;;;6.30;99.90;;;;;;5011079;28;20037;-30
2022/11/27 11:03:32;;;;;;;13.30;8.23;;;6.30;99.90;;;;;;5014234;28;20050;-31
2022/11/27 11:06:25;;;;;;;15.98;8.80;;;6.30;99.90;;;;;;5002962;28;20041;-30
2022/11/27 11:09:11;;;;;;;16.58;8.85;;;6.30;99.90;;;;;;5009277;28;20038;-32
2022/11/27 11:11:37;;;;;;;18.08;11.95;;;6.40;99.90;;;;;;4993734;28;20042;-31
2022/11/27 11:14:02;;;;;;;13.85;9.75;;;6.30;99.90;;;;;;5008520;28;20044;-31
2022/11/27 11:16:29;;;;;;;13.35;7.78;;;6.30;99.90;;;;;;5009589;28;20095;-30
2022/11/27 11:18:56;;;;;;;13.93;10.35;;;6.40;99.90;;;;;;5011122;28;20034;-30
2022/11/27 11:21:31;;;;;;;11.27;8.63;;;6.40;99.90;;;;;;5011446;28;20520;-31
2022/11/27 11:24:28;;;;;;;17.15;9.68;;;6.40;99.90;;;;;;5011211;28;20038;-31
2022/11/27 11:26:58;;;;;;;10.05;7.57;;;6.40;99.90;;;;;;4997307;28;20040;-30
2022/11/27 11:29:29;;;;;;;17.77;11.27;;;6.40;99.90;;;;;;5012836;28;20029;-30
2022/11/27 11:32:01;;;;;;;13.77;9.25;;;6.40;99.90;;;;;;5018508;28;20036;-31
2022/11/27 11:34:28;;;;;;;16.20;11.10;;;6.40;99.90;;;;;;5013005;28;20487;-31
2022/11/27 11:37:02;;;;;;;16.27;12.50;;;6.50;99.90;;;;;;5018899;28;20045;-31
2022/11/27 11:39:44;;;;;;;16.20;10.02;;;6.50;99.90;;;;;;5011350;28;20124;-29
2022/11/27 11:42:21;;;;;;;26.90;19.13;;;6.50;99.90;;;;;;5018629;28;20040;-31
2022/11/27 11:45:00;;;;;;;23.45;14.48;;;6.50;99.90;;;;;;5012561;28;20456;-31
2022/11/27 11:47:26;;;;;;;19.60;13.00;;;6.50;99.90;;;;;;5013817;28;20044;-32
2022/11/27 11:49:54;;;;;;;14.82;9.45;;;6.50;99.90;;;;;;5015122;28;20038;-31
2022/11/27 11:52:48;;;;;;;16.58;10.65;;;6.50;99.90;;;;;;5016736;28;20122;-31
2022/11/27 11:55:34;;;;;;;13.57;11.02;;;6.60;99.90;;;;;;5004753;28;20419;-31
2022/11/27 11:58:19;;;;;;;19.58;12.65;;;6.60;99.90;;;;;;4995907;28;20042;-30
2022/11/27 12:00:54;;;;;;;12.18;8.68;;;6.60;99.90;;;;;;5012214;28;20176;-32
2022/11/27 12:03:40;;;;;;;16.13;10.00;;;6.70;99.90;;;;;;5021123;28;20107;-31
2022/11/27 12:06:27;;;;;;;15.55;10.63;;;6.70;99.90;;;;;;5021994;28;20064;-31
2022/11/27 12:09:29;;;;;;;13.15;8.20;;;6.60;99.90;;;;;;5018153;28;20042;-31
2022/11/27 12:12:19;;;;;;;12.20;8.57;;;6.70;99.90;;;;;;5023061;28;20045;-32
2022/11/27 12:14:48;;;;;;;10.55;7.03;;;6.70;99.90;;;;;;5023980;28;20041;-32
2022/11/27 12:17:26;;;;;;;12.57;7.30;;;6.70;99.90;;;;;;5012568;28;20484;-32
2022/11/27 12:20:18;;;;;;;10.32;7.25;;;6.70;99.90;;;;;;5024927;28;20055;-33
2022/11/27 12:23:22;;;;;;;13.45;8.07;;;6.70;99.90;;;;;;5025238;28;20121;-31
2022/11/27 12:26:08;;;;;;;12.30;8.18;;;6.70;99.90;;;;;;5008540;28;20143;-33
2022/11/27 12:29:00;;;;;;;12.45;8.60;;;6.80;99.90;;;;;;5009243;28;20046;-32
2022/11/27 12:31:32;;;;;;;15.38;8.93;;;6.80;99.90;;;;;;5012949;28;20521;-31
2022/11/27 12:34:14;;;;;;;11.20;7.63;;;6.80;99.90;;;;;;5003034;28;20037;-32
2022/11/27 12:37:19;;;;;;;14.50;8.88;;;6.80;99.90;;;;;;5007825;28;20041;-31
2022/11/27 12:39:57;;;;;;;;;;;6.80;99.90;;;;;;5006664;28;20046;-31
2022/11/27 12:42:42;;;;;;;12.60;7.40;;;6.80;99.90;;;;;;5017721;28;19924;-31
2022/11/27 12:45:18;;;;;;;14.00;8.82;;;6.80;99.90;;;;;;4992588;28;20133;-32
2022/11/27 12:47:50;;;;;;;15.70;8.48;;;6.80;99.90;;;;;;5027050;28;20435;-31
2022/11/27 12:50:22;;;;;;;13.77;9.13;;;6.80;99.90;;;;;;5018128;28;20088;-31
2022/11/27 12:53:13;;;;;;;18.13;9.90;;;6.80;99.90;;;;;;5014023;28;20101;-31
2022/11/27 12:55:45;;;;;;;13.07;8.90;;;6.70;99.90;;;;;;5015703;28;20065;-32
2022/11/27 12:58:32;;;;;;;15.35;9.77;;;6.70;99.90;;;;;;5006966;28;20034;-30
2022/11/27 13:01:39;;;;;;;19.08;11.57;;;6.80;99.90;;;;;;5013555;28;20132;-32
2022/11/27 13:04:11;;;;;;;14.48;9.98;;;6.70;99.90;;;;;;5008631;28;20108;-31
2022/11/27 13:06:53;;;;;;;15.27;9.18;;;6.70;99.90;;;;;;5029116;28;20402;-30